Glencoe, Alabama
Current Conditions -  °F | °C
As of 10:15 AM on Saturday 25 Oct 2014 (Local Time) from KGAD Reporting Station
Clear Clear  
Wind Chill: 61°   Ceiling: Unl
Heat Index: 61°   Visibility: 10mi
Dew Point: 46°   Wind: 0mph
Humidity: 59%   Direction: NA
Pressure: 30.13"   Gusts: NA
Location:  33.9283°N, 85.9257°W
Report Text: KGAD 251515Z 00000KT 10SM CLR 16/08 A3013 RMK AO1
Loading
Personal Weather Stations






























Interactive Weather Map
Tropical Storm Tracking
New forecast layout! Learn more

10-Day Weather Forecast

Advertisements
Track Severe Weather on mobile